CheckWX is a tool to help pilots better visualize weather data.  It is not intended as a substitute for an official pre-flight weather briefing.

18:48:38 UTC

KHUT METAR
Hutchinson Regional Airport
Hutchinson, Kansas, USA
Current

57 mins ago

KHUT 201752Z 20011G20KT 10SM CLR 36/22 A2995 RMK AO2 SLP113 T03560217 10356 20244 58012
Observed
Aug-20 @ 17:52 UTC
Wind
  • 200° at 11 KTS
  • Gusting to 20 KTS
Visibility
10 SM
Flight Rules
VFR
Cloud Levels
  • Clear skies
Temperature
36°C / 97°F
Dewpoint
22°C / 72°F
Heat Index
41°C / 106°F
Humidity
44%
Altimeter
29.95" Hg
Pressure
1014.22 hPa
Previous

2 hours ago

KHUT 201652Z 18012KT 10SM CLR 35/22 A2997 RMK AO2 SLP119 T03500217
Observed
Aug-20 @ 16:52 UTC
Wind
  • 180° at 12 KTS
Visibility
10 SM
Flight Rules
VFR
Cloud Levels
  • Clear skies
Temperature
35°C / 95°F
Dewpoint
22°C / 72°F
Heat Index
39°C / 103°F
Humidity
47%
Altimeter
29.97" Hg
Pressure
1014.92 hPa
Previous

3 hours ago

KHUT 201552Z 20011KT 10SM CLR 33/22 A2998 RMK AO2 SLP125 T03280217
Observed
Aug-20 @ 15:52 UTC
Wind
  • 200° at 11 KTS
Visibility
10 SM
Flight Rules
VFR
Cloud Levels
  • Clear skies
Temperature
33°C / 91°F
Dewpoint
22°C / 72°F
Heat Index
37°C / 98°F
Humidity
52%
Altimeter
29.98" Hg
Pressure
1015.22 hPa